Time;durP1;ratioP1;P1;durP2;ratioP2;P2;SDS_P1;SDS_P2;PMS_P1;PMS_P2;Temp;Humidity;BMP_temperature;BMP_pressure;BME280_temperature;BME280_humidity;BME280_pressure;Samples;Min_cycle;Max_cycle;Signal;HPM_P1;HPM_P2
2023/06/24 00:02:45;;;;;;;;;;;14.40;99.90;;;;;;8292141;28;19917;-83
2023/06/24 00:06:46;;;;;;;;;;;14.70;99.90;;;;;;8294491;28;20026;-81
2023/06/24 00:10:46;;;;;;;;;;;14.40;99.90;;;;;;8292834;28;19921;-81
2023/06/24 00:14:47;;;;;;;;;;;14.20;99.90;;;;;;8292767;28;19916;-81
2023/06/24 00:18:48;;;;;;;;;;;14.80;99.90;;;;;;8294270;28;20622;-80
2023/06/24 00:22:48;;;;;;;;;;;14.30;99.90;;;;;;8292539;28;19920;-81
2023/06/24 00:26:49;;;;;;;;;;;14.20;99.90;;;;;;8296694;28;20385;-82
2023/06/24 00:30:49;;;;;;;;;;;14.20;99.90;;;;;;8299680;28;20450;-83
2023/06/24 00:34:50;;;;;;;;;;;14.20;99.90;;;;;;8300475;28;20017;-82
2023/06/24 00:38:50;;;;;;;;;;;14.20;99.90;;;;;;8300126;28;19914;-82
2023/06/24 00:42:51;;;;;;;;;;;14.40;99.90;;;;;;8297159;28;20285;-81
2023/06/24 00:46:52;;;;;;;;;;;14.40;99.90;;;;;;8298132;28;19998;-82
2023/06/24 00:50:52;;;;;;;;;;;15.00;99.90;;;;;;8298378;28;19913;-82
2023/06/24 00:54:53;;;;;;;;;;;14.20;99.90;;;;;;8298393;28;20621;-81
2023/06/24 00:58:54;;;;;;;;;;;14.90;99.90;;;;;;8300035;28;19945;-81
2023/06/24 01:02:55;;;;;;;;;;;14.20;99.90;;;;;;8300892;28;19944;-81
2023/06/24 01:06:56;;;;;;;;;;;14.40;99.90;;;;;;8300255;28;19937;-81
2023/06/24 01:10:57;;;;;;;;;;;15.50;99.90;;;;;;8299258;28;19922;-81
2023/06/24 01:14:57;;;;;;;;;;;15.20;99.90;;;;;;8299718;28;20001;-80
2023/06/24 01:19:01;;;;;;;;;;;15.50;99.90;;;;;;8298136;28;19913;-81
2023/06/24 01:23:20;;;;;;;;;;;14.80;99.90;;;;;;8300086;28;19910;-82
2023/06/24 01:27:32;;;;;;;;;;;14.80;99.90;;;;;;8299145;28;20004;-82
2023/06/24 01:31:35;;;;;;;;;;;14.60;99.90;;;;;;8297451;28;20571;-82
2023/06/24 01:35:36;;;;;;;;;;;14.40;99.90;;;;;;8296899;28;19968;-81
2023/06/24 01:39:41;;;;;;;;;;;14.40;99.90;;;;;;8297505;28;19910;-82
2023/06/24 01:43:42;;;;;;;;;;;14.40;99.90;;;;;;8281807;28;20390;-82
2023/06/24 01:47:45;;;;;;;;;;;14.70;99.90;;;;;;8296573;28;19964;-82
2023/06/24 01:51:46;;;;;;;;;;;14.20;99.90;;;;;;8296712;28;19991;-81
2023/06/24 01:55:48;;;;;;;;;;;14.10;99.90;;;;;;8298930;28;19909;-82
2023/06/24 01:59:49;;;;;;;;;;;15.60;99.90;;;;;;8295928;28;19964;-82
2023/06/24 02:03:50;;;;;;;;;;;14.70;99.90;;;;;;8296548;28;20004;-81
2023/06/24 02:07:51;;;;;;;;;;;14.70;99.90;;;;;;8298534;28;19941;-82
2023/06/24 02:11:52;;;;;;;;;;;14.10;99.90;;;;;;8294738;28;19914;-81
2023/06/24 02:15:53;;;;;;;;;;;13.90;99.90;;;;;;8295653;28;20004;-80
2023/06/24 02:19:54;;;;;;;;;;;14.30;99.90;;;;;;8294945;28;19910;-82
2023/06/24 02:23:56;;;;;;;;;;;14.10;99.90;;;;;;8295909;28;19916;-81
2023/06/24 02:27:56;;;;;;;;;;;14.90;99.90;;;;;;8294857;28;19936;-82
2023/06/24 02:31:57;;;;;;;;;;;14.40;99.90;;;;;;8295133;28;20008;-81
2023/06/24 02:35:57;;;;;;;;;;;14.70;99.90;;;;;;8295015;28;19925;-81
2023/06/24 02:39:58;;;;;;;;;;;14.70;99.90;;;;;;8295240;28;19913;-81
2023/06/24 02:43:58;;;;;;;;;;;14.20;99.90;;;;;;8293109;28;19909;-81
2023/06/24 02:47:59;;;;;;;;;;;14.40;99.90;;;;;;8294968;28;20628;-82
2023/06/24 02:52:00;;;;;;;;;;;13.80;99.90;;;;;;8294908;28;19913;-82
2023/06/24 02:56:00;;;;;;;;;;;13.90;99.90;;;;;;8292872;28;19913;-82
2023/06/24 03:00:01;;;;;;;;;;;14.30;99.90;;;;;;8296053;28;20382;-82
2023/06/24 03:04:02;;;;;;;;;;;14.20;99.90;;;;;;8295453;28;19964;-82
2023/06/24 03:08:06;;;;;;;;;;;14.10;99.90;;;;;;8295649;28;19909;-82
2023/06/24 03:12:07;;;;;;;;;;;14.20;99.90;;;;;;8294302;28;20613;-82
2023/06/24 03:16:12;;;;;;;;;;;14.20;99.90;;;;;;8296426;28;19914;-82
2023/06/24 03:20:12;;;;;;;;;;;14.10;99.90;;;;;;8294031;28;19914;-82
2023/06/24 03:24:12;;;;;;;;;;;14.10;99.90;;;;;;8294300;28;19910;-82
2023/06/24 03:28:13;;;;;;;;;;;14.00;99.90;;;;;;8295509;28;19909;-82
2023/06/24 03:32:14;;;;;;;;;;;14.50;99.90;;;;;;8293776;28;19917;-82
2023/06/24 03:36:14;;;;;;;;;;;14.90;99.90;;;;;;8292201;28;19952;-82
2023/06/24 03:40:14;;;;;;;;;;;14.40;99.90;;;;;;8311086;28;19936;-81
2023/06/24 03:44:15;;;;;;;;;;;14.30;99.90;;;;;;8296554;28;19909;-82
2023/06/24 03:48:15;;;;;;;;;;;14.20;99.90;;;;;;8293212;28;20400;-82
2023/06/24 03:52:19;;;;;;;;;;;14.20;99.90;;;;;;8293213;28;20008;-82
2023/06/24 03:56:19;;;;;;;;;;;14.60;99.90;;;;;;8293097;28;19909;-80
2023/06/24 04:00:20;;;;;;;;;;;15.00;99.90;;;;;;8291442;28;19913;-81
2023/06/24 04:04:23;;;;;;;;;;;14.80;99.90;;;;;;8292981;28;19921;-81
2023/06/24 04:08:28;;;;;;;;;;;14.40;99.90;;;;;;8293247;28;19920;-81
2023/06/24 04:12:29;;;;;;;;;;;14.50;99.90;;;;;;8285884;28;19932;-82
2023/06/24 04:16:29;;;;;;;;;;;14.50;99.90;;;;;;8284146;28;20498;-80
2023/06/24 04:20:30;;;;;;;;;;;14.20;99.90;;;;;;8287415;28;20384;-81
2023/06/24 04:24:31;;;;;;;;;;;14.50;99.90;;;;;;8287962;28;20338;-81
2023/06/24 04:28:31;;;;;;;;;;;14.80;99.90;;;;;;8286572;28;20571;-81
2023/06/24 04:32:32;;;;;;;;;;;14.90;99.90;;;;;;8282886;28;19983;-80
2023/06/24 04:36:32;;;;;;;;;;;15.60;99.90;;;;;;8284951;28;19920;-82
2023/06/24 04:40:32;;;;;;;;;;;17.10;99.90;;;;;;8292062;28;20543;-81
2023/06/24 04:44:33;;;;;;;;;;;18.40;99.90;;;;;;8289464;28;19920;-82
2023/06/24 04:48:34;;;;;;;;;;;18.30;99.90;;;;;;8289211;28;19913;-82
2023/06/24 04:52:35;;;;;;;;;;;19.50;99.90;;;;;;8289998;28;19918;-82
2023/06/24 04:56:35;;;;;;;;;;;19.80;99.90;;;;;;8288704;28;19910;-81
2023/06/24 05:00:36;;;;;;;;;;;19.80;99.90;;;;;;8288054;28;19914;-82
2023/06/24 05:04:36;;;;;;;;;;;21.00;99.90;;;;;;8285982;28;19964;-82
2023/06/24 05:08:36;;;;;;;;;;;21.60;99.90;;;;;;8294545;28;19940;-82
2023/06/24 05:12:37;;;;;;;;;;;21.80;99.90;;;;;;8287855;28;20296;-82
2023/06/24 05:16:37;;;;;;;;;;;22.00;99.90;;;;;;8296184;28;20051;-83
2023/06/24 05:20:38;;;;;;;;;;;22.40;99.90;;;;;;8286480;28;20002;-81
2023/06/24 05:24:41;;;;;;;;;;;22.30;99.90;;;;;;8291405;28;20512;-83
